Time;durP1;ratioP1;P1;durP2;ratioP2;P2;SDS_P1;SDS_P2;PMS_P1;PMS_P2;Temp;Humidity;BMP_temperature;BMP_pressure;BME280_temperature;BME280_humidity;BME280_pressure;Samples;Min_cycle;Max_cycle;Signal;HPM_P1;HPM_P2
2021/08/14 00:01:52;;;;;;;4.90;4.70;;;;;;;15.09;80.33;101753.13;4413981;32;20080;-68
2021/08/14 00:04:17;;;;;;;5.10;4.90;;;;;;;15.04;81.15;101750.75;4435698;32;20073;-68
2021/08/14 00:06:43;;;;;;;5.07;4.87;;;;;;;15.03;80.45;101758.75;4422476;32;20091;-68
2021/08/14 00:09:08;;;;;;;5.30;5.10;;;;;;;14.95;80.64;101745.94;4424743;32;20075;-68
2021/08/14 00:11:33;;;;;;;5.20;4.90;;;;;;;14.94;81.27;101753.03;4418122;32;20152;-67
2021/08/14 00:13:59;;;;;;;5.95;5.65;;;;;;;14.90;81.22;101751.50;4433436;32;20099;-68
2021/08/14 00:16:24;;;;;;;5.05;4.85;;;;;;;14.89;81.30;101749.78;4417601;32;20083;-67
2021/08/14 00:18:49;;;;;;;5.30;5.00;;;;;;;14.88;81.80;101752.50;4433109;32;20076;-68
2021/08/14 00:21:15;;;;;;;5.47;5.18;;;;;;;14.47;81.70;101686.81;4432217;32;20120;-68
2021/08/14 00:23:40;;;;;;;4.80;4.60;;;;;;;14.85;81.25;101755.31;4432002;32;20869;-67
2021/08/14 00:26:06;;;;;;;5.47;5.18;;;;;;;14.82;81.66;101748.41;4432637;32;20076;-67
2021/08/14 00:28:31;;;;;;;5.40;5.00;;;;;;;14.82;81.53;101745.75;4422506;32;20078;-67
2021/08/14 00:30:57;;;;;;;5.00;4.80;;;;;;;14.81;82.09;101741.41;4435137;32;20084;-67
2021/08/14 00:33:22;;;;;;;5.55;5.07;;;;;;;14.80;81.85;101744.16;4411704;32;20069;-67
2021/08/14 00:35:48;;;;;;;5.12;4.90;;;;;;;14.78;81.83;101740.72;4439681;32;20084;-66
2021/08/14 00:38:13;;;;;;;5.05;4.85;;;;;;;14.74;81.73;101748.81;4417097;32;20064;-67
2021/08/14 00:40:40;;;;;;;5.10;4.90;;;;;;;13.80;81.85;101601.44;4436318;32;20066;-67
2021/08/14 00:43:05;;;;;;;4.85;4.65;;;;;;;14.69;81.94;101742.06;4419158;32;20149;-67
2021/08/14 00:45:31;;;;;;;5.00;4.80;;;;;;;14.64;82.76;101750.22;4432624;32;20194;-67
2021/08/14 00:47:56;;;;;;;4.87;4.68;;;;;;;14.62;82.52;101741.53;4423910;32;20210;-67
2021/08/14 00:50:22;;;;;;;5.43;5.12;;;;;;;14.59;82.83;101744.31;4423757;32;20076;-67
2021/08/14 00:52:47;;;;;;;4.82;4.62;;;;;;;14.54;83.15;101746.34;4434355;32;20072;-67
2021/08/14 00:55:13;;;;;;;4.90;4.70;;;;;;;14.52;83.20;101742.91;4420880;32;20940;-67
2021/08/14 00:57:38;;;;;;;5.75;4.72;;;;;;;14.51;83.18;101741.19;4430664;32;20084;-67
2021/08/14 01:00:04;;;;;;;4.80;4.60;;;;;;;14.46;83.18;101741.44;4432647;32;20082;-67
2021/08/14 01:02:29;;;;;;;5.25;4.95;;;;;;;14.42;83.22;101731.13;4432053;32;20472;-67
2021/08/14 01:04:55;;;;;;;5.00;4.80;;;;;;;14.39;83.13;101726.00;4433458;32;20068;-67
2021/08/14 01:07:20;;;;;;;4.97;4.78;;;;;;;14.32;83.53;101722.81;4432757;32;20072;-67
2021/08/14 01:09:46;;;;;;;5.30;4.95;;;;;;;14.33;83.03;101729.78;4432760;32;20079;-67
2021/08/14 01:12:15;;;;;;;4.93;4.72;;;;;;;14.31;83.37;101729.03;4431506;32;20073;-67
2021/08/14 01:14:41;;;;;;;4.90;4.70;;;;;;;14.26;83.87;101731.91;4431223;32;20949;-67
2021/08/14 01:17:06;;;;;;;4.80;4.60;;;;;;;14.22;84.28;101725.06;4431539;32;20076;-67
2021/08/14 01:19:31;;;;;;;5.20;5.00;;;;;;;14.20;84.30;101726.09;4438920;32;20099;-67
2021/08/14 01:21:58;;;;;;;5.10;4.90;;;;;;;14.14;84.57;101721.97;4431325;32;20153;-67
2021/08/14 01:24:24;;;;;;;5.10;4.90;;;;;;;14.10;84.20;101721.25;4429978;32;20060;-67
2021/08/14 01:26:49;;;;;;;5.00;4.80;;;;;;;14.08;84.40;101723.12;4423702;32;20595;-67
2021/08/14 01:29:15;;;;;;;5.10;4.90;;;;;;;14.04;84.45;101720.72;4429814;32;20162;-67
2021/08/14 01:31:40;;;;;;;5.20;4.90;;;;;;;14.01;84.66;101727.03;4426025;32;20060;-67
2021/08/14 01:34:05;;;;;;;4.85;4.65;;;;;;;13.97;84.87;101725.44;4418560;32;20114;-67
2021/08/14 01:36:31;;;;;;;5.12;4.93;;;;;;;13.90;85.33;101729.34;4413213;32;20079;-67
2021/08/14 01:38:58;;;;;;;5.43;5.10;;;;;;;13.85;85.68;101726.06;4428015;32;20075;-67
2021/08/14 01:41:24;;;;;;;4.75;4.55;;;;;;;13.82;85.25;101721.78;4421786;32;20113;-67
2021/08/14 01:44:06;;;;;;;4.70;4.50;;;;;;;13.76;84.46;101720.31;4434121;32;20609;-67
2021/08/14 01:46:37;;;;;;;4.72;4.53;;;;;;;13.67;85.30;101719.91;4435474;32;20072;-69
2021/08/14 01:49:02;;;;;;;5.00;4.80;;;;;;;13.57;84.87;101712.44;4434174;32;20082;-67
2021/08/14 01:51:28;;;;;;;4.93;4.72;;;;;;;13.51;84.86;101712.75;4436380;32;20084;-68
2021/08/14 01:53:56;;;;;;;4.90;4.70;;;;;;;13.42;84.58;101702.62;4433666;32;20191;-68
2021/08/14 01:56:21;;;;;;;4.70;4.50;;;;;;;13.41;84.77;101703.59;4436104;32;20666;-68
2021/08/14 01:58:47;;;;;;;4.80;4.60;;;;;;;13.38;84.91;101709.00;4420729;32;20138;-68
2021/08/14 02:01:12;;;;;;;4.90;4.70;;;;;;;12.28;84.67;101523.53;4436776;32;20074;-68
2021/08/14 02:03:38;;;;;;;4.70;4.50;;;;;;;13.35;84.83;101706.50;4425700;32;20160;-68
2021/08/14 02:06:06;;;;;;;4.90;4.70;;;;;;;13.34;85.45;101710.06;4442593;32;20998;-68
2021/08/14 02:08:31;;;;;;;4.70;4.50;;;;;;;13.34;85.41;101707.44;4433753;32;20076;-68
2021/08/14 02:10:56;;;;;;;4.80;4.60;;;;;;;13.32;85.64;101701.37;4429055;32;20708;-67
2021/08/14 02:13:22;;;;;;;4.72;4.53;;;;;;;13.32;85.92;101704.00;4419805;32;20080;-67
2021/08/14 02:15:47;;;;;;;4.90;4.70;;;;;;;13.32;85.93;101702.22;4442730;32;20095;-68
2021/08/14 02:18:13;;;;;;;4.80;4.60;;;;;;;13.16;86.26;101680.97;4423644;32;20056;-68
2021/08/14 02:20:38;;;;;;;5.10;4.90;;;;;;;13.24;86.35;101698.22;4433824;32;20064;-68
2021/08/14 02:23:03;;;;;;;4.75;4.55;;;;;;;13.31;87.09;101707.56;4432341;32;20916;-67
2021/08/14 02:25:29;;;;;;;4.90;4.70;;;;;;;12.25;87.11;101541.22;4430206;32;20131;-68
2021/08/14 02:27:54;;;;;;;5.30;5.00;;;;;;;13.29;87.45;101702.38;4421072;32;20147;-67
2021/08/14 02:30:19;;;;;;;4.80;4.60;;;;;;;13.29;87.57;101712.00;4434792;32;20589;-68
2021/08/14 02:32:47;;;;;;;4.80;4.60;;;;;;;13.27;87.49;101708.59;4421711;32;20094;-67
2021/08/14 02:35:12;;;;;;;5.45;5.03;;;;;;;13.26;87.17;101713.03;4417940;32;20215;-67
2021/08/14 02:37:37;;;;;;;4.65;4.45;;;;;;;13.24;87.25;101709.59;4414436;32;20135;-69
2021/08/14 02:40:03;;;;;;;4.80;4.60;;;;;;;13.24;87.56;101714.87;4436089;32;20102;-68
2021/08/14 02:42:31;;;;;;;4.82;4.62;;;;;;;13.25;87.63;101710.44;4430893;32;20060;-68
2021/08/14 02:44:57;;;;;;;4.72;4.53;;;;;;;13.25;87.66;101703.44;4439850;32;20179;-68
2021/08/14 02:47:22;;;;;;;4.90;4.65;;;;;;;13.24;87.83;101706.97;4430114;32;20068;-69
2021/08/14 02:49:47;;;;;;;5.05;4.85;;;;;;;13.22;87.73;101708.81;4437920;32;20078;-68
2021/08/14 02:52:13;;;;;;;4.57;4.37;;;;;;;13.22;87.70;101702.72;4431669;32;20613;-69
2021/08/14 02:54:38;;;;;;;4.87;4.68;;;;;;;13.20;87.84;101697.50;4427127;32;20261;-69
2021/08/14 02:57:03;;;;;;;4.80;4.60;;;;;;;13.16;88.01;101699.41;4433142;32;20094;-68
2021/08/14 02:59:29;;;;;;;4.72;4.53;;;;;;;13.15;87.88;101696.88;4434375;32;20191;-68
2021/08/14 03:01:54;;;;;;;5.45;5.15;;;;;;;13.15;88.08;101695.09;4418761;32;20083;-68
2021/08/14 03:04:19;;;;;;;4.75;4.55;;;;;;;13.11;88.07;101693.53;4433643;32;20629;-68
2021/08/14 03:06:45;;;;;;;4.75;4.55;;;;;;;13.17;87.99;101701.13;4434276;32;20083;-68
2021/08/14 03:09:10;;;;;;;4.85;4.65;;;;;;;13.13;87.94;101696.94;4437811;32;20071;-68
2021/08/14 03:11:37;;;;;;;4.80;4.60;;;;;;;13.13;87.83;101690.81;4421850;32;20605;-68
2021/08/14 03:14:02;;;;;;;5.07;4.87;;;;;;;13.08;88.06;101695.44;4425077;32;20082;-69
2021/08/14 03:16:27;;;;;;;4.50;4.30;;;;;;;13.11;88.11;101698.78;4424220;32;20099;-69
2021/08/14 03:18:53;;;;;;;4.70;4.50;;;;;;;13.11;88.38;101695.28;4426669;32;20076;-69
2021/08/14 03:21:18;;;;;;;5.18;4.97;;;;;;;13.09;88.20;101698.00;4422912;32;20160;-69
2021/08/14 03:23:43;;;;;;;4.50;4.30;;;;;;;13.08;88.17;101700.72;4433157;32;20068;-69
2021/08/14 03:26:09;;;;;;;4.80;4.60;;;;;;;13.07;88.14;101702.50;4434910;32;20072;-67
2021/08/14 03:28:34;;;;;;;4.72;4.53;;;;;;;12.80;88.51;101651.09;4433302;32;20652;-67
2021/08/14 03:30:59;;;;;;;4.62;4.43;;;;;;;13.03;88.69;101694.78;4440788;32;20072;-67
2021/08/14 03:33:25;;;;;;;4.93;4.72;;;;;;;13.02;88.51;101698.37;4434198;32;20128;-68
2021/08/14 03:35:50;;;;;;;4.80;4.60;;;;;;;12.99;88.65;101691.47;4437382;32;20090;-69
2021/08/14 03:38:16;;;;;;;4.87;4.68;;;;;;;13.01;88.75;101691.37;4431129;32;20072;-69
2021/08/14 03:40:41;;;;;;;5.07;4.80;;;;;;;12.99;88.63;101691.47;4438394;32;20060;-69
2021/08/14 03:43:06;;;;;;;4.80;4.60;;;;;;;12.98;88.67;101687.09;4430851;32;21367;-69
2021/08/14 03:45:32;;;;;;;4.78;4.57;;;;;;;12.98;88.79;101695.84;4423096;32;20083;-67
2021/08/14 03:47:57;;;;;;;4.93;4.72;;;;;;;12.96;88.92;101708.25;4433922;32;20082;-67
2021/08/14 03:50:22;;;;;;;4.65;4.45;;;;;;;12.96;88.62;101691.59;4417574;32;20069;-68
2021/08/14 03:52:48;;;;;;;5.00;4.70;;;;;;;12.96;88.52;101696.88;4434732;32;20075;-68
2021/08/14 03:55:13;;;;;;;5.03;4.82;;;;;;;12.96;88.79;101697.72;4420765;32;20067;-68
2021/08/14 03:57:38;;;;;;;4.62;4.43;;;;;;;12.92;88.69;101690.03;4432717;32;20060;-68
2021/08/14 04:00:04;;;;;;;4.78;4.57;;;;;;;12.97;88.16;101698.59;4419092;32;20095;-66
2021/08/14 04:02:30;;;;;;;4.70;4.50;;;;;;;12.94;88.57;101701.34;4419119;32;20103;-66
2021/08/14 04:04:55;;;;;;;4.60;4.40;;;;;;;13.02;89.27;101708.91;4440555;32;20106;-66
2021/08/14 04:07:21;;;;;;;18.73;17.83;;;;;;;11.96;89.14;101533.72;4393850;32;20422;-66
2021/08/14 04:09:46;;;;;;;5.15;4.95;;;;;;;13.00;89.02;101701.06;4431047;32;20068;-66
2021/08/14 04:12:11;;;;;;;4.85;4.65;;;;;;;12.98;89.09;101702.91;4419895;32;20071;-66
2021/08/14 04:14:37;;;;;;;5.18;4.97;;;;;;;12.97;89.35;101706.50;4432551;32;20086;-66
2021/08/14 04:17:02;;;;;;;4.65;4.45;;;;;;;12.97;89.17;101702.06;4437990;32;20068;-66
2021/08/14 04:19:28;;;;;;;4.70;4.50;;;;;;;12.97;89.29;101704.72;4420616;32;20068;-66
2021/08/14 04:21:53;;;;;;;5.10;4.80;;;;;;;12.98;89.29;101708.19;4434115;32;20133;-67
2021/08/14 04:24:19;;;;;;;4.82;4.62;;;;;;;12.99;89.17;101707.28;4420170;32;20094;-66
2021/08/14 04:26:44;;;;;;;4.60;4.40;;;;;;;13.00;89.42;101706.34;4431724;32;20135;-67
2021/08/14 04:29:09;;;;;;;4.90;4.70;;;;;;;13.02;89.29;101701.84;4429879;32;20078;-67
2021/08/14 04:31:35;;;;;;;4.50;4.30;;;;;;;13.07;89.29;101707.78;4415431;32;20076;-69
2021/08/14 04:34:00;;;;;;;5.70;5.40;;;;;;;13.17;89.47;101710.84;4428782;32;20086;-68
2021/08/14 04:36:26;;;;;;;4.57;4.37;;;;;;;13.28;88.94;101708.53;4416646;32;20090;-70
2021/08/14 04:38:51;;;;;;;5.07;4.82;;;;;;;13.45;88.80;101706.91;4435046;32;20149;-66
2021/08/14 04:41:16;;;;;;;4.50;4.30;;;;;;;13.60;88.67;101707.97;4444265;32;20083;-68
2021/08/14 04:43:42;;;;;;;4.80;4.60;;;;;;;13.66;87.62;101700.59;4433021;32;20084;-66
2021/08/14 04:46:07;;;;;;;5.00;4.80;;;;;;;13.70;87.58;101703.94;4424642;32;20078;-68
2021/08/14 04:48:32;;;;;;;4.82;4.62;;;;;;;13.68;87.44;101695.25;4433404;32;20660;-67
2021/08/14 04:50:58;;;;;;;5.40;4.82;;;;;;;13.79;87.46;101699.97;4423868;32;20126;-67
2021/08/14 04:53:23;;;;;;;4.60;4.40;;;;;;;13.89;87.16;101698.59;4430717;32;20063;-68
2021/08/14 04:55:49;;;;;;;4.60;4.40;;;;;;;14.16;87.28;101705.13;4420590;32;20091;-68
2021/08/14 04:58:14;;;;;;;4.70;4.50;;;;;;;14.58;86.12;101697.72;4437389;32;20059;-69
2021/08/14 05:00:39;;;;;;;4.75;4.55;;;;;;;15.15;84.63;101699.91;4418612;32;20079;-69
2021/08/14 05:03:05;;;;;;;5.47;4.72;;;;;;;15.65;82.59;101693.56;4431499;32;20091;-67
2021/08/14 05:05:30;;;;;;;4.90;4.70;;;;;;;16.11;81.08;101698.00;4422474;32;20116;-68
2021/08/14 05:07:56;;;;;;;4.80;4.60;;;;;;;16.45;78.94;101696.81;4421897;32;20102;-69
2021/08/14 05:10:21;;;;;;;5.00;4.80;;;;;;;16.73;77.94;101697.75;4421811;32;20083;-68
2021/08/14 05:12:46;;;;;;;5.05;4.82;;;;;;;17.15;77.14;101694.22;4432352;32;20071;-68
2021/08/14 05:15:12;;;;;;;5.68;5.10;;;;;;;17.61;74.68;101685.06;4435910;32;20565;-68
2021/08/14 05:17:37;;;;;;;5.25;4.95;;;;;;;17.96;72.50;101691.66;4431974;32;20623;-67
2021/08/14 05:20:04;;;;;;;5.43;5.15;;;;;;;18.28;71.00;101698.31;4418296;32;20078;-68
2021/08/14 05:22:29;;;;;;;5.10;4.90;;;;;;;18.69;68.84;101694.56;4432120;32;20181;-68
2021/08/14 05:24:54;;;;;;;5.78;5.47;;;;;;;18.99;66.50;101696.03;4419798;32;20757;-68
2021/08/14 05:27:20;;;;;;;5.45;5.15;;;;;;;19.10;65.94;101688.13;4433592;32;20133;-68
2021/08/14 05:29:45;;;;;;;5.20;5.00;;;;;;;19.23;65.80;101692.56;4425350;32;20077;-68
2021/08/14 05:32:11;;;;;;;5.78;5.47;;;;;;;19.16;65.62;101664.69;4434187;32;20072;-68
2021/08/14 05:34:36;;;;;;;5.68;5.37;;;;;;;18.90;66.89;101643.47;4419566;32;20079;-68
2021/08/14 05:37:01;;;;;;;5.40;5.10;;;;;;;19.08;66.77;101689.19;4418067;32;20083;-68
2021/08/14 05:39:27;;;;;;;5.50;5.20;;;;;;;19.27;66.59;101694.87;4434958;32;20076;-67
2021/08/14 05:41:52;;;;;;;5.80;5.50;;;;;;;19.35;65.95;101691.66;4420505;32;20589;-68
2021/08/14 05:44:20;;;;;;;5.47;5.18;;;;;;;19.44;66.79;101700.75;4431262;32;20078;-68
2021/08/14 05:46:46;;;;;;;5.60;5.30;;;;;;;19.34;66.31;101695.25;4435410;32;20088;-68
2021/08/14 05:49:11;;;;;;;5.30;5.10;;;;;;;19.44;65.46;101698.94;4432810;32;20106;-68
2021/08/14 05:51:36;;;;;;;5.95;5.65;;;;;;;19.62;65.81;101693.22;4434277;32;20457;-68
2021/08/14 05:54:02;;;;;;;5.45;5.20;;;;;;;19.83;66.27;101685.50;4419950;32;20075;-68
2021/08/14 05:56:28;;;;;;;5.55;5.32;;;;;;;20.22;65.22;101684.22;4434542;32;20103;-68
2021/08/14 05:58:53;;;;;;;5.85;5.45;;;;;;;20.68;64.06;101680.66;4418962;32;20885;-68
2021/08/14 06:01:19;;;;;;;5.97;5.65;;;;;;;20.78;62.98;101682.59;4432867;32;20079;-68
2021/08/14 06:03:44;;;;;;;5.47;5.28;;;;;;;19.60;62.63;101620.59;4419746;32;20068;-68
2021/08/14 06:06:09;;;;;;;5.60;5.30;;;;;;;19.41;66.37;101699.19;4437569;32;20087;-67
2021/08/14 06:08:35;;;;;;;6.10;5.75;;;;;;;19.05;67.95;101686.75;4433034;32;20073;-68
2021/08/14 06:11:00;;;;;;;5.62;5.30;;;;;;;18.97;68.92;101687.31;4434361;32;20063;-68
2021/08/14 06:13:26;;;;;;;6.00;5.70;;;;;;;18.86;68.59;101700.50;4433121;32;20078;-68
2021/08/14 06:15:51;;;;;;;5.50;5.20;;;;;;;18.91;69.31;101693.06;4419254;32;20144;-68
2021/08/14 06:18:16;;;;;;;5.65;5.25;;;;;;;18.93;69.04;101693.81;4418883;32;20628;-68
2021/08/14 06:20:42;;;;;;;5.87;5.57;;;;;;;19.02;68.49;101689.62;4418899;32;20118;-68
2021/08/14 06:23:07;;;;;;;5.65;5.35;;;;;;;18.94;67.78;101692.84;4418063;32;20079;-68
2021/08/14 06:25:32;;;;;;;6.03;5.62;;;;;;;18.81;68.73;101700.84;4434988;32;20892;-68
2021/08/14 06:27:58;;;;;;;5.78;5.47;;;;;;;18.85;68.12;101702.34;4421034;32;20064;-68
2021/08/14 06:30:23;;;;;;;5.53;5.22;;;;;;;18.91;68.47;101698.41;4432814;32;20082;-68
2021/08/14 06:32:48;;;;;;;5.82;5.43;;;;;;;19.00;67.94;101703.03;4431214;32;20079;-69
2021/08/14 06:35:14;;;;;;;5.60;5.35;;;;;;;18.83;67.96;101706.06;4422773;32;20581;-69
2021/08/14 06:37:43;;;;;;;5.25;5.03;;;;;;;18.73;67.30;101701.34;4433915;32;20083;-68
2021/08/14 06:40:12;;;;;;;5.22;5.03;;;;;;;18.92;67.57;101700.06;4435842;32;20203;-68
2021/08/14 06:42:37;;;;;;;5.60;5.20;;;;;;;19.13;67.56;101700.34;4435427;32;20079;-68
2021/08/14 06:45:03;;;;;;;5.70;5.40;;;;;;;19.27;66.51;101702.03;4428156;32;20069;-72
2021/08/14 06:47:29;;;;;;;5.50;5.20;;;;;;;19.38;66.10;101695.91;4417462;32;20072;-69
2021/08/14 06:49:54;;;;;;;6.00;5.70;;;;;;;19.43;66.33;101699.09;4432289;32;20609;-69
2021/08/14 06:52:19;;;;;;;5.80;5.50;;;;;;;19.76;65.64;101695.72;4430457;32;20693;-69
2021/08/14 06:54:45;;;;;;;5.90;5.60;;;;;;;19.96;64.66;101694.22;4424917;32;20094;-70
2021/08/14 06:57:10;;;;;;;6.57;5.55;;;;;;;20.08;64.47;101695.94;4432318;32;20464;-70
2021/08/14 06:59:35;;;;;;;5.47;5.22;;;;;;;20.06;63.42;101686.38;4419116;32;20076;-71
2021/08/14 07:02:01;;;;;;;5.45;5.25;;;;;;;20.19;63.64;101689.81;4421051;32;20883;-71
2021/08/14 07:04:26;;;;;;;5.30;5.10;;;;;;;20.27;62.72;101703.41;4419135;32;20091;-69
2021/08/14 07:06:51;;;;;;;5.20;4.97;;;;;;;20.20;63.58;101699.50;4433226;32;20142;-70
2021/08/14 07:09:18;;;;;;;5.70;5.40;;;;;;;20.23;62.50;101683.28;4432105;32;20552;-71
2021/08/14 07:11:45;;;;;;;5.50;5.22;;;;;;;20.40;62.17;101697.09;4433137;32;20185;-71
2021/08/14 07:14:11;;;;;;;5.65;5.35;;;;;;;20.47;61.38;101693.00;4432481;32;20522;-72
2021/08/14 07:16:36;;;;;;;5.82;5.55;;;;;;;20.33;59.46;101694.91;4448904;32;20068;-70
2021/08/14 07:19:02;;;;;;;5.45;5.20;;;;;;;20.43;60.70;101688.88;4419513;32;20059;-70
2021/08/14 07:21:28;;;;;;;5.25;5.05;;;;;;;20.57;59.72;101701.09;4431883;32;20578;-70
2021/08/14 07:23:54;;;;;;;5.93;5.45;;;;;;;20.57;58.14;101687.78;4428993;32;20072;-69
2021/08/14 07:26:19;;;;;;;5.20;5.00;;;;;;;20.66;57.80;101682.59;4428731;32;20087;-69
2021/08/14 07:28:44;;;;;;;5.32;5.12;;;;;;;20.75;57.37;101690.84;4431720;32;20075;-68
2021/08/14 07:31:10;;;;;;;5.20;5.00;;;;;;;20.66;56.77;101679.94;4419506;32;20068;-70
2021/08/14 07:33:35;;;;;;;5.32;5.12;;;;;;;20.55;56.45;101685.25;4431384;32;20064;-67
2021/08/14 07:36:00;;;;;;;5.28;5.07;;;;;;;20.32;56.95;101685.22;4425069;32;20091;-72
2021/08/14 07:38:26;;;;;;;5.12;4.93;;;;;;;20.48;56.63;101684.03;4428180;32;20816;-68
2021/08/14 07:40:51;;;;;;;5.22;4.97;;;;;;;20.36;57.01;101684.97;4428777;32;20071;-68
2021/08/14 07:43:16;;;;;;;5.70;5.40;;;;;;;20.44;56.32;101682.56;4433006;32;20688;-68
2021/08/14 07:45:42;;;;;;;5.53;5.22;;;;;;;20.61;56.72;101687.47;4432101;32;20084;-69
2021/08/14 07:48:07;;;;;;;5.47;5.18;;;;;;;20.45;56.26;101676.28;4430866;32;20083;-68
2021/08/14 07:50:33;;;;;;;5.30;5.10;;;;;;;20.46;58.19;101681.47;4423315;32;20857;-68
2021/08/14 07:52:59;;;;;;;5.25;5.00;;;;;;;20.31;57.84;101672.03;4426842;32;20187;-67
2021/08/14 07:55:26;;;;;;;6.78;5.50;;;;;;;20.24;58.67;101687.63;4422533;32;20093;-68
2021/08/14 07:57:51;;;;;;;5.93;5.45;;;;;;;20.49;56.32;101669.72;4428512;32;20084;-68
2021/08/14 08:00:18;;;;;;;5.90;5.60;;;;;;;20.32;56.38;101679.03;4425977;32;20090;-68
2021/08/14 08:02:44;;;;;;;5.55;5.25;;;;;;;20.38;57.95;101669.72;4421714;32;20096;-69
2021/08/14 08:05:09;;;;;;;5.50;5.20;;;;;;;20.31;55.43;101613.37;4435754;32;20091;-68
2021/08/14 08:07:37;;;;;;;5.80;5.35;;;;;;;19.97;55.91;101524.59;4432174;32;20569;-68
2021/08/14 08:10:05;;;;;;;6.00;5.70;;;;;;;20.86;52.88;101657.00;4422271;32;20836;-68
2021/08/14 08:12:30;;;;;;;5.20;5.00;;;;;;;20.63;52.81;101669.53;4433403;32;20064;-69
2021/08/14 08:14:56;;;;;;;5.20;5.00;;;;;;;20.78;53.32;101677.25;4427812;32;20177;-68
2021/08/14 08:17:21;;;;;;;5.10;4.90;;;;;;;21.11;53.24;101669.22;4416514;32;20237;-68
2021/08/14 08:19:46;;;;;;;5.30;5.10;;;;;;;21.20;51.91;101678.28;4431661;32;20079;-68
2021/08/14 08:22:12;;;;;;;5.32;5.12;;;;;;;21.41;52.16;101662.31;4434825;32;20482;-69
2021/08/14 08:24:37;;;;;;;5.18;4.97;;;;;;;21.53;50.99;101663.16;4433165;32;20079;-68
2021/08/14 08:27:03;;;;;;;5.28;4.97;;;;;;;21.61;50.58;101660.69;4434074;32;20126;-68
2021/08/14 08:29:28;;;;;;;6.00;5.70;;;;;;;21.73;51.27;101673.97;4433685;32;20547;-69
2021/08/14 08:31:53;;;;;;;5.40;5.10;;;;;;;21.45;50.24;101670.97;4439109;32;20063;-69
2021/08/14 08:34:23;;;;;;;5.75;5.40;;;;;;;21.70;50.99;101678.59;4439391;32;20064;-68
2021/08/14 08:36:49;;;;;;;5.45;5.15;;;;;;;21.91;49.37;101673.28;4421838;32;20067;-68
2021/08/14 08:39:14;;;;;;;6.78;6.47;;;;;;;21.86;49.03;101675.50;4432020;32;20099;-68
2021/08/14 08:41:40;;;;;;;4.97;4.78;;;;;;;22.04;48.19;101674.91;4437271;32;20063;-69
2021/08/14 08:44:05;;;;;;;5.20;5.00;;;;;;;22.12;47.87;101672.44;4434212;32;20064;-69
2021/08/14 08:46:30;;;;;;;5.32;5.12;;;;;;;22.21;47.53;101671.66;4422643;32;20140;-67
2021/08/14 08:48:56;;;;;;;5.62;5.32;;;;;;;22.34;48.07;101663.44;4431589;32;20071;-67
2021/08/14 08:51:25;;;;;;;5.35;5.00;;;;;;;22.42;47.28;101655.59;4433621;32;20076;-68
2021/08/14 08:53:51;;;;;;;5.53;5.22;;;;;;;22.41;47.93;101653.03;4431633;32;20072;-68
2021/08/14 08:56:16;;;;;;;5.10;4.90;;;;;;;22.70;46.89;101662.03;4432688;32;20079;-68
2021/08/14 08:58:42;;;;;;;5.60;5.20;;;;;;;22.74;45.33;101659.94;4432990;32;20084;-69
2021/08/14 09:01:07;;;;;;;5.07;4.87;;;;;;;22.81;45.25;101660.22;4433078;32;20875;-68
2021/08/14 09:03:32;;;;;;;7.97;5.40;;;;;;;22.79;45.48;101662.19;4419927;32;20559;-68
2021/08/14 09:05:58;;;;;;;6.15;5.70;;;;;;;22.94;46.21;101652.81;4418961;32;20076;-69
2021/08/14 09:08:23;;;;;;;5.05;4.85;;;;;;;22.97;44.14;101654.34;4431962;32;20072;-68
2021/08/14 09:10:49;;;;;;;5.10;4.90;;;;;;;23.05;44.53;101658.09;4421981;32;20536;-68
2021/08/14 09:13:24;;;;;;;5.60;5.22;;;;;;;23.04;44.42;101666.25;4432928;32;20057;-68
2021/08/14 09:15:50;;;;;;;5.50;5.30;;;;;;;23.37;44.87;101664.16;4428920;32;20573;-68
2021/08/14 09:18:16;;;;;;;5.35;5.15;;;;;;;23.20;43.02;101660.34;4432786;32;20087;-69
2021/08/14 09:20:51;;;;;;;5.20;5.00;;;;;;;23.19;43.78;101664.84;4439581;32;20145;-68
2021/08/14 09:23:17;;;;;;;5.70;5.28;;;;;;;23.34;43.93;101665.28;4433371;32;20086;-67
2021/08/14 09:25:46;;;;;;;5.55;5.30;;;;;;;23.44;43.04;101662.62;4421809;32;20075;-68
2021/08/14 09:28:13;;;;;;;5.43;5.12;;;;;;;23.35;42.91;101661.63;4433257;32;20558;-68
2021/08/14 09:30:50;;;;;;;5.15;4.95;;;;;;;23.37;43.70;101650.78;4434451;32;20060;-68
2021/08/14 09:33:35;;;;;;;5.75;5.25;;;;;;;23.49;44.02;101646.97;4446170;32;20079;-68
2021/08/14 09:36:05;;;;;;;5.40;5.10;;;;;;;23.74;44.12;101645.53;4442291;32;20067;-68
2021/08/14 09:38:38;;;;;;;5.20;5.00;;;;;;;23.99;44.49;101640.59;4432155;32;20083;-69
2021/08/14 09:41:19;;;;;;;5.37;5.18;;;;;;;23.88;43.11;101637.09;4442915;32;20996;-68
2021/08/14 09:43:46;;;;;;;5.60;5.30;;;;;;;23.77;42.71;101634.56;4433526;32;20064;-68
2021/08/14 09:46:11;;;;;;;5.75;5.45;;;;;;;23.64;43.60;101634.81;4432667;32;20098;-68
2021/08/14 09:48:37;;;;;;;5.72;5.43;;;;;;;23.22;44.95;101640.47;4419239;32;20841;-69
2021/08/14 09:51:02;;;;;;;5.80;5.50;;;;;;;23.63;44.50;101638.50;4435332;32;20075;-68
2021/08/14 09:53:29;;;;;;;5.35;5.15;;;;;;;23.89;42.77;101636.09;4430907;32;20072;-68
2021/08/14 09:56:11;;;;;;;5.80;5.45;;;;;;;24.07;42.56;101633.53;4425669;32;20087;-66
2021/08/14 09:58:37;;;;;;;5.70;5.40;;;;;;;24.22;41.16;101628.53;4433065;32;20545;-68
2021/08/14 10:01:03;;;;;;;5.40;5.20;;;;;;;24.51;42.59;101635.62;4428024;32;20540;-68
2021/08/14 10:03:29;;;;;;;5.30;5.10;;;;;;;24.47;40.84;101628.84;4435052;32;20086;-67
2021/08/14 10:05:55;;;;;;;5.62;5.32;;;;;;;24.57;40.62;101623.47;4439670;32;20092;-68
2021/08/14 10:08:20;;;;;;;5.40;5.20;;;;;;;24.60;39.27;101618.62;4433156;32;20067;-68
2021/08/14 10:10:45;;;;;;;5.60;5.40;;;;;;;24.43;39.79;101617.53;4433750;32;20092;-68
2021/08/14 10:13:11;;;;;;;5.50;5.20;;;;;;;23.73;40.55;101626.91;4432470;32;20064;-69
2021/08/14 10:15:37;;;;;;;5.40;5.10;;;;;;;24.16;41.52;101630.94;4434132;32;20090;-68
2021/08/14 10:18:03;;;;;;;5.20;5.00;;;;;;;24.26;39.09;101618.34;4433570;32;20164;-68
2021/08/14 10:20:28;;;;;;;5.35;5.15;;;;;;;23.95;38.92;101623.94;4432011;32;20091;-68
2021/08/14 10:23:02;;;;;;;5.18;4.97;;;;;;;24.42;40.19;101610.50;4429952;32;20052;-68
2021/08/14 10:25:28;;;;;;;5.68;5.37;;;;;;;24.76;38.51;101609.09;4427093;32;20071;-67
2021/08/14 10:27:57;;;;;;;5.30;5.10;;;;;;;24.58;37.63;101601.84;4441756;32;20186;-68
2021/08/14 10:30:48;;;;;;;5.53;5.18;;;;;;;24.42;38.69;101604.31;4447594;32;20129;-68
2021/08/14 10:33:26;;;;;;;5.87;5.57;;;;;;;24.76;40.12;101612.63;4427181;32;20167;-69
2021/08/14 10:35:51;;;;;;;5.40;5.20;;;;;;;25.18;38.56;101600.47;4448135;32;20133;-69
2021/08/14 10:38:39;;;;;;;5.95;5.57;;;;;;;24.87;37.44;101606.19;4432253;32;20076;-69
2021/08/14 10:41:05;;;;;;;5.85;5.60;;;;;;;24.77;38.01;101600.88;4441643;32;20957;-69
2021/08/14 10:43:52;;;;;;;5.32;5.10;;;;;;;25.14;37.97;101602.59;4430779;32;20080;-70
2021/08/14 10:46:36;;;;;;;5.70;5.40;;;;;;;25.17;37.43;101593.37;4442086;32;20143;-72
2021/08/14 10:49:01;;;;;;;5.90;5.60;;;;;;;25.25;37.45;101598.84;4444033;32;20888;-73
2021/08/14 10:51:50;;;;;;;5.60;5.40;;;;;;;25.48;35.82;101600.06;4428650;32;20071;-73
2021/08/14 10:54:28;;;;;;;5.50;5.30;;;;;;;25.65;36.98;101594.81;4438408;32;20084;-71
2021/08/14 10:56:54;;;;;;;5.95;5.65;;;;;;;25.50;34.41;101577.56;4440341;32;20226;-71
2021/08/14 10:59:38;;;;;;;5.87;5.57;;;;;;;25.82;35.10;101587.69;4419338;32;20068;-70
2021/08/14 11:02:06;;;;;;;5.60;5.40;;;;;;;26.17;35.27;101578.66;4456978;32;20552;-74
2021/08/14 11:04:55;;;;;;;5.62;5.37;;;;;;;25.86;34.45;101581.00;4454936;32;20072;-72
2021/08/14 11:07:29;;;;;;;5.32;5.12;;;;;;;25.78;37.10;101572.87;4416347;32;20083;-71
2021/08/14 11:09:58;;;;;;;5.50;5.20;;;;;;;26.02;36.95;101577.56;4432792;32;20076;-71
2021/08/14 11:12:32;;;;;;;6.62;6.22;;;;;;;25.95;35.28;101573.84;4444821;32;20060;-72
2021/08/14 11:15:20;;;;;;;6.43;6.12;;;;;;;25.55;35.46;101567.19;4439359;32;20113;-71
2021/08/14 11:17:50;;;;;;;5.75;5.22;;;;;;;25.40;35.49;101559.69;4445455;32;20251;-69
2021/08/14 11:20:24;;;;;;;5.50;5.30;;;;;;;25.70;36.82;101567.44;4420481;32;20153;-70
2021/08/14 11:22:51;;;;;;;5.35;5.12;;;;;;;26.29;37.02;101584.62;4450735;32;20086;-69